Time;durP1;ratioP1;P1;durP2;ratioP2;P2;SDS_P1;SDS_P2;PMS_P1;PMS_P2;Temp;Humidity;BMP_temperature;BMP_pressure;BME280_temperature;BME280_humidity;BME280_pressure;Samples;Min_cycle;Max_cycle;Signal;HPM_P1;HPM_P2
2021/09/07 00:00:33;;;;;;;22.40;19.60;;;17.40;99.90;;;;;;5048785;28;20457;-87
2021/09/07 00:03:00;;;;;;;23.97;20.33;;;17.40;99.90;;;;;;5049656;28;20436;-86
2021/09/07 00:05:29;;;;;;;22.67;20.00;;;17.40;99.90;;;;;;5057341;28;20546;-88
2021/09/07 00:07:56;;;;;;;28.07;19.63;;;17.40;99.90;;;;;;5049367;28;20447;-87
2021/09/07 00:10:23;;;;;;;22.87;18.13;;;17.40;99.90;;;;;;5045346;28;20441;-88
2021/09/07 00:12:50;;;;;;;29.83;20.87;;;17.40;99.90;;;;;;5041610;28;20800;-87
2021/09/07 00:15:18;;;;;;;24.83;20.50;;;17.30;99.90;;;;;;5047700;28;20466;-87
2021/09/07 00:17:46;;;;;;;24.40;20.10;;;17.30;99.90;;;;;;5048638;28;20441;-88
2021/09/07 00:20:15;;;;;;;26.80;19.20;;;17.30;99.90;;;;;;5042603;28;20438;-87
2021/09/07 00:22:43;;;;;;;25.10;19.30;;;17.30;99.90;;;;;;5036150;28;20557;-86
2021/09/07 00:25:11;;;;;;;25.30;19.47;;;17.30;99.90;;;;;;5034456;28;20520;-86
2021/09/07 00:27:38;;;;;;;27.13;21.00;;;17.20;99.90;;;;;;5034707;28;20527;-88
2021/09/07 00:30:07;;;;;;;20.50;17.50;;;17.20;99.90;;;;;;5033890;28;20445;-86
2021/09/07 00:32:34;;;;;;;20.70;18.00;;;17.20;99.90;;;;;;5037406;28;20460;-86
2021/09/07 00:35:01;;;;;;;22.33;19.97;;;17.10;99.90;;;;;;5036031;28;20472;-87
2021/09/07 00:37:28;;;;;;;24.03;21.60;;;17.00;99.90;;;;;;5039981;28;20449;-86
2021/09/07 00:39:56;;;;;;;21.90;19.70;;;17.00;99.90;;;;;;5039219;28;20803;-86
2021/09/07 00:42:22;;;;;;;25.60;19.70;;;17.00;99.90;;;;;;5038775;28;20438;-87
2021/09/07 00:44:49;;;;;;;20.17;17.93;;;17.00;99.90;;;;;;5036634;28;20465;-86
2021/09/07 00:47:16;;;;;;;20.30;18.20;;;17.00;99.90;;;;;;5036613;28;20833;-87
2021/09/07 00:49:42;;;;;;;22.03;17.77;;;17.00;99.90;;;;;;5034366;28;20453;-87
2021/09/07 00:52:10;;;;;;;21.67;18.80;;;16.90;99.90;;;;;;5034644;28;20453;-86
2021/09/07 00:54:38;;;;;;;21.50;19.17;;;16.80;99.90;;;;;;5036949;28;20465;-86
2021/09/07 00:57:09;;;;;;;19.93;18.00;;;16.80;99.90;;;;;;5039379;28;20430;-86
2021/09/07 00:59:36;;;;;;;20.00;17.87;;;16.80;99.90;;;;;;5039084;28;20932;-86
2021/09/07 01:02:04;;;;;;;20.60;18.50;;;16.70;99.90;;;;;;5046950;28;20472;-87
2021/09/07 01:04:32;;;;;;;21.83;19.53;;;16.70;99.90;;;;;;5044487;28;20468;-87
2021/09/07 01:07:00;;;;;;;23.43;19.97;;;16.60;99.90;;;;;;5039345;28;20480;-87
2021/09/07 01:09:26;;;;;;;20.73;18.60;;;16.60;99.90;;;;;;5039704;28;20461;-87
2021/09/07 01:11:53;;;;;;;22.50;19.83;;;16.60;99.90;;;;;;5039230;28;20453;-87
2021/09/07 01:14:30;;;;;;;22.90;19.10;;;16.60;99.90;;;;;;5056714;28;20456;-86
2021/09/07 01:16:56;;;;;;;20.63;17.83;;;16.60;99.90;;;;;;5054607;28;20447;-86
2021/09/07 01:19:24;;;;;;;23.73;21.20;;;16.60;99.90;;;;;;5049276;28;20445;-86
2021/09/07 01:21:50;;;;;;;23.10;19.47;;;16.50;99.90;;;;;;5054713;28;20438;-85
2021/09/07 01:24:21;;;;;;;21.30;19.00;;;16.50;99.90;;;;;;5039299;28;20538;-86
2021/09/07 01:26:48;;;;;;;21.70;19.50;;;16.50;99.90;;;;;;5039040;28;20485;-86
2021/09/07 01:29:15;;;;;;;21.23;19.00;;;16.50;99.90;;;;;;5038012;28;20453;-87
2021/09/07 01:31:42;;;;;;;22.70;19.70;;;16.40;99.90;;;;;;5039227;28;20445;-87
2021/09/07 01:34:09;;;;;;;23.53;19.07;;;16.40;99.90;;;;;;5038648;28;20821;-87
2021/09/07 01:36:35;;;;;;;24.03;21.30;;;16.40;99.90;;;;;;5055124;28;20460;-87
2021/09/07 01:39:02;;;;;;;22.10;19.03;;;16.30;99.90;;;;;;5047500;28;20448;-87
2021/09/07 01:41:30;;;;;;;24.67;20.77;;;16.40;99.90;;;;;;5046326;28;20441;-87
2021/09/07 01:43:57;;;;;;;23.93;19.30;;;16.30;99.90;;;;;;5060237;28;20440;-87
2021/09/07 01:46:23;;;;;;;24.33;20.37;;;16.30;99.90;;;;;;5042182;28;20476;-86
2021/09/07 01:48:50;;;;;;;22.00;19.80;;;16.30;99.90;;;;;;5056250;28;20436;-87
2021/09/07 01:51:17;;;;;;;21.10;19.10;;;16.30;99.90;;;;;;5041849;28;20445;-86
2021/09/07 01:53:43;;;;;;;21.97;18.97;;;16.20;99.90;;;;;;5037747;28;20583;-86
2021/09/07 01:56:10;;;;;;;22.73;20.17;;;16.20;99.90;;;;;;5046065;28;20457;-87
2021/09/07 01:58:38;;;;;;;22.53;20.13;;;16.10;99.90;;;;;;5049780;28;20965;-87
2021/09/07 02:01:05;;;;;;;27.40;21.03;;;16.10;99.90;;;;;;5053501;28;20477;-87
2021/09/07 02:03:32;;;;;;;21.83;19.37;;;16.10;99.90;;;;;;5054605;28;20464;-86
2021/09/07 02:05:59;;;;;;;22.03;19.73;;;16.10;99.90;;;;;;5054060;28;20481;-86
2021/09/07 02:08:25;;;;;;;20.43;18.33;;;16.10;99.90;;;;;;5053590;28;20509;-86
2021/09/07 02:10:52;;;;;;;22.17;19.90;;;16.10;99.90;;;;;;5040153;28;20452;-86
2021/09/07 02:13:19;;;;;;;22.97;18.80;;;16.00;99.90;;;;;;5044443;28;20461;-87
2021/09/07 02:15:47;;;;;;;25.60;21.43;;;16.00;99.90;;;;;;5054107;28;20548;-86
2021/09/07 02:18:13;;;;;;;21.87;19.40;;;16.00;99.90;;;;;;5051988;28;20452;-87
2021/09/07 02:20:40;;;;;;;20.83;18.70;;;16.00;99.90;;;;;;5044840;28;20441;-87
2021/09/07 02:23:07;;;;;;;23.30;19.07;;;15.90;99.90;;;;;;5039200;28;20449;-87
2021/09/07 02:25:34;;;;;;;22.07;17.93;;;15.90;99.90;;;;;;5037291;28;20469;-87
2021/09/07 02:28:02;;;;;;;19.47;17.50;;;15.90;99.90;;;;;;5037924;28;20953;-87
2021/09/07 02:30:29;;;;;;;21.60;19.30;;;15.90;99.90;;;;;;5037078;28;20488;-87
2021/09/07 02:32:59;;;;;;;21.53;19.23;;;15.80;99.90;;;;;;5038491;28;20952;-87
2021/09/07 02:35:27;;;;;;;21.03;18.93;;;15.70;99.90;;;;;;5042615;28;20532;-87
2021/09/07 02:37:54;;;;;;;20.97;18.73;;;15.80;99.90;;;;;;5040912;28;20476;-87
2021/09/07 02:40:20;;;;;;;18.77;17.00;;;15.80;99.90;;;;;;5037312;28;20449;-87
2021/09/07 02:42:47;;;;;;;21.60;18.70;;;15.80;99.90;;;;;;5036434;28;20482;-87
2021/09/07 02:45:14;;;;;;;22.93;20.73;;;15.80;99.90;;;;;;5037591;28;20880;-87
2021/09/07 02:47:41;;;;;;;23.80;19.37;;;15.80;99.90;;;;;;5035998;28;20488;-87
2021/09/07 02:50:10;;;;;;;21.80;19.50;;;15.80;99.90;;;;;;5041046;28;20556;-87
2021/09/07 02:52:37;;;;;;;20.10;18.10;;;15.70;99.90;;;;;;5041767;28;20814;-87
2021/09/07 02:55:06;;;;;;;21.63;18.60;;;15.60;99.90;;;;;;5036000;28;20464;-87
2021/09/07 02:57:33;;;;;;;21.60;19.30;;;15.60;99.90;;;;;;5036047;28;20485;-87
2021/09/07 03:00:00;;;;;;;21.53;19.23;;;15.60;99.90;;;;;;5035498;28;20445;-87
2021/09/07 03:02:29;;;;;;;21.53;19.23;;;15.60;99.90;;;;;;5036275;28;20943;-87
2021/09/07 03:04:55;;;;;;;20.97;18.87;;;15.60;99.90;;;;;;5037125;28;20892;-87
2021/09/07 03:07:24;;;;;;;22.23;18.80;;;15.50;99.90;;;;;;5036633;28;20448;-87
2021/09/07 03:09:50;;;;;;;21.87;19.07;;;15.50;99.90;;;;;;5035711;28;20456;-87
2021/09/07 03:12:17;;;;;;;22.23;20.00;;;15.40;99.90;;;;;;5037923;28;20452;-87
2021/09/07 03:14:44;;;;;;;20.80;18.80;;;15.40;99.90;;;;;;5038467;28;20991;-86
2021/09/07 03:17:10;;;;;;;20.77;18.83;;;15.40;99.90;;;;;;5036684;28;20822;-87
2021/09/07 03:19:37;;;;;;;21.03;18.73;;;15.30;99.90;;;;;;5037230;28;20453;-87
2021/09/07 03:22:04;;;;;;;22.00;19.77;;;15.20;99.90;;;;;;5044937;28;20449;-87
2021/09/07 03:24:32;;;;;;;19.87;17.80;;;15.20;99.90;;;;;;5051718;28;20461;-88
2021/09/07 03:26:59;;;;;;;21.93;19.53;;;15.30;99.90;;;;;;5036936;28;20440;-87
2021/09/07 03:29:25;;;;;;;21.70;18.80;;;15.20;99.90;;;;;;5035394;28;20463;-87
2021/09/07 03:31:52;;;;;;;22.97;19.10;;;15.20;99.90;;;;;;5036535;28;20445;-88
2021/09/07 03:34:19;;;;;;;22.23;18.10;;;15.20;99.90;;;;;;5040637;28;20440;-87
2021/09/07 03:36:45;;;;;;;21.20;18.80;;;15.00;99.90;;;;;;5042777;28;20477;-87
2021/09/07 03:39:12;;;;;;;19.10;17.20;;;15.00;99.90;;;;;;5039557;28;20442;-87
2021/09/07 03:41:40;;;;;;;20.37;18.27;;;15.10;99.90;;;;;;5037530;28;20956;-87
2021/09/07 03:44:07;;;;;;;20.50;18.30;;;15.00;99.90;;;;;;5034635;28;20840;-87
2021/09/07 03:46:34;;;;;;;22.10;19.73;;;15.00;99.90;;;;;;5034349;28;20453;-87
2021/09/07 03:49:00;;;;;;;20.93;18.80;;;15.00;99.90;;;;;;5035160;28;20456;-88
2021/09/07 03:51:27;;;;;;;19.30;17.40;;;15.00;99.90;;;;;;5033800;28;20449;-88
2021/09/07 03:53:54;;;;;;;19.83;17.73;;;15.00;99.90;;;;;;5033712;28;20464;-88
2021/09/07 03:56:21;;;;;;;20.43;18.40;;;14.90;99.90;;;;;;5044024;28;20480;-89
2021/09/07 03:58:49;;;;;;;25.20;18.17;;;14.90;99.90;;;;;;5055824;28;20449;-89
2021/09/07 04:01:15;;;;;;;21.93;18.70;;;14.90;99.90;;;;;;5043942;28;20524;-89
2021/09/07 04:03:42;;;;;;;17.50;15.73;;;14.90;99.90;;;;;;5055484;28;20427;-88
2021/09/07 04:06:09;;;;;;;17.83;15.90;;;14.80;99.90;;;;;;5042807;28;20469;-88
2021/09/07 04:08:35;;;;;;;19.77;17.03;;;14.80;99.90;;;;;;5056199;28;20451;-89
2021/09/07 04:11:02;;;;;;;18.80;16.20;;;14.90;99.90;;;;;;5041071;28;20443;-88
2021/09/07 04:13:29;;;;;;;22.00;18.03;;;14.90;99.90;;;;;;5040005;28;20448;-88
2021/09/07 04:15:57;;;;;;;20.97;17.73;;;14.90;99.90;;;;;;5039154;28;20469;-88
2021/09/07 04:18:23;;;;;;;22.80;19.40;;;14.80;99.90;;;;;;5038253;28;20485;-88
2021/09/07 04:20:50;;;;;;;19.53;17.53;;;14.80;99.90;;;;;;5035630;28;20447;-88
2021/09/07 04:23:17;;;;;;;20.80;18.63;;;14.80;99.90;;;;;;5034171;28;20479;-88
2021/09/07 04:25:44;;;;;;;21.50;18.57;;;14.80;99.90;;;;;;5033599;28;21030;-88
2021/09/07 04:28:10;;;;;;;20.47;18.53;;;14.80;99.90;;;;;;5033165;28;20443;-88
2021/09/07 04:30:40;;;;;;;24.67;20.20;;;14.80;99.90;;;;;;5033653;28;20982;-94
2021/09/07 04:33:08;;;;;;;21.33;19.10;;;14.80;99.90;;;;;;5033849;28;20868;-88
2021/09/07 04:35:35;;;;;;;22.30;19.20;;;14.80;99.90;;;;;;5033919;28;20489;-87
2021/09/07 04:38:02;;;;;;;20.30;18.20;;;14.90;99.90;;;;;;5032552;28;20484;-87
2021/09/07 04:40:28;;;;;;;22.77;20.50;;;14.80;99.90;;;;;;5033413;28;20449;-88
2021/09/07 04:42:55;;;;;;;21.80;19.50;;;14.90;99.90;;;;;;5034266;28;20437;-88
2021/09/07 04:45:22;;;;;;;20.67;18.10;;;14.90;99.90;;;;;;5033067;28;20477;-88
2021/09/07 04:47:49;;;;;;;22.30;20.30;;;14.80;99.90;;;;;;5032792;28;20445;-88
2021/09/07 04:50:17;;;;;;;23.93;20.50;;;14.80;99.90;;;;;;5032339;28;20443;-88
2021/09/07 04:52:43;;;;;;;20.90;18.80;;;14.70;99.90;;;;;;5032257;28;20833;-87
2021/09/07 04:55:10;;;;;;;22.07;18.70;;;14.80;99.90;;;;;;5032404;28;20542;-88
2021/09/07 04:57:37;;;;;;;21.70;18.53;;;14.80;99.90;;;;;;5032321;28;21049;-87
2021/09/07 05:00:05;;;;;;;22.10;19.90;;;14.80;99.90;;;;;;5032826;28;20441;-88
2021/09/07 05:02:34;;;;;;;23.13;20.67;;;14.80;99.90;;;;;;5032247;28;20452;-88
2021/09/07 05:05:04;;;;;;;22.63;19.70;;;14.70;99.90;;;;;;5036472;28;20480;-88
2021/09/07 05:07:32;;;;;;;21.43;18.30;;;14.80;99.90;;;;;;5042992;28;20452;-88
2021/09/07 05:09:58;;;;;;;28.50;18.93;;;14.80;99.90;;;;;;5040003;28;20459;-88
2021/09/07 05:12:27;;;;;;;22.97;20.67;;;14.80;99.90;;;;;;5055546;28;20437;-88
2021/09/07 05:14:54;;;;;;;24.60;20.80;;;14.90;99.90;;;;;;5051164;28;20504;-88
2021/09/07 05:17:21;;;;;;;24.77;19.87;;;15.00;99.90;;;;;;5037206;28;20490;-88
2021/09/07 05:19:47;;;;;;;24.40;18.60;;;15.00;99.90;;;;;;5032523;28;20453;-88
2021/09/07 05:22:14;;;;;;;21.17;18.70;;;15.10;99.90;;;;;;5033085;28;20453;-87
2021/09/07 05:24:42;;;;;;;25.47;22.70;;;15.10;99.90;;;;;;5036314;28;20809;-88
2021/09/07 05:27:09;;;;;;;22.93;19.97;;;15.10;99.90;;;;;;5035781;28;20947;-87
2021/09/07 05:29:35;;;;;;;22.70;19.27;;;15.20;99.90;;;;;;5039680;28;20449;-86
2021/09/07 05:32:02;;;;;;;23.13;19.73;;;15.20;99.90;;;;;;5041841;28;20456;-86
2021/09/07 05:36:59;;;;;;;23.57;20.53;;;15.20;99.90;;;;;;5040356;28;20516;-89
2021/09/07 05:39:25;;;;;;;21.10;18.40;;;15.20;99.90;;;;;;5048672;28;20433;-89
2021/09/07 05:41:53;;;;;;;25.13;19.53;;;15.30;99.90;;;;;;5038920;28;20448;-89
2021/09/07 05:44:20;;;;;;;26.90;20.70;;;15.40;99.90;;;;;;5034323;28;20449;-89
2021/09/07 05:46:47;;;;;;;26.83;19.60;;;15.40;99.90;;;;;;5057287;28;20452;-89
2021/09/07 05:49:14;;;;;;;22.57;17.87;;;15.50;99.90;;;;;;5057912;28;20440;-90
2021/09/07 05:51:41;;;;;;;25.23;20.10;;;15.60;99.90;;;;;;5058544;28;20446;-91
2021/09/07 05:54:08;;;;;;;22.63;19.53;;;15.60;99.90;;;;;;5061445;28;20483;-90
2021/09/07 05:56:35;;;;;;;21.67;18.47;;;15.70;99.90;;;;;;5058850;28;20472;-87
2021/09/07 05:59:03;;;;;;;20.93;18.93;;;15.70;99.90;;;;;;5056629;28;20482;-87
2021/09/07 06:01:29;;;;;;;20.10;17.73;;;15.70;99.90;;;;;;5063305;28;20433;-86
2021/09/07 06:03:56;;;;;;;22.10;19.80;;;15.70;99.90;;;;;;5077671;28;20448;-87
2021/09/07 06:06:24;;;;;;;22.33;19.77;;;15.70;99.90;;;;;;5059696;28;20468;-87
2021/09/07 06:08:50;;;;;;;27.03;20.20;;;15.70;99.90;;;;;;5056678;28;20449;-86
2021/09/07 06:11:17;;;;;;;20.00;17.90;;;15.70;99.90;;;;;;5056534;28;20828;-87
2021/09/07 06:13:44;;;;;;;19.93;17.87;;;15.70;99.90;;;;;;5056007;28;20513;-86
2021/09/07 06:16:12;;;;;;;23.70;19.40;;;15.80;99.90;;;;;;5055791;28;20468;-86
2021/09/07 06:18:39;;;;;;;20.87;18.77;;;15.80;99.90;;;;;;5057329;28;20480;-86
2021/09/07 06:21:06;;;;;;;25.10;18.03;;;15.90;99.90;;;;;;5055573;28;20517;-86
2021/09/07 06:23:33;;;;;;;21.03;17.47;;;15.90;99.90;;;;;;5055777;28;20939;-87
2021/09/07 06:26:00;;;;;;;23.43;20.07;;;16.00;99.90;;;;;;5056070;28;20468;-86
2021/09/07 06:28:27;;;;;;;21.83;17.87;;;16.10;99.90;;;;;;5055607;28;21008;-92
2021/09/07 06:30:54;;;;;;;23.17;20.60;;;16.10;99.90;;;;;;5055922;28;20479;-87
2021/09/07 06:33:22;;;;;;;25.60;19.70;;;16.20;99.90;;;;;;5064171;28;20455;-87
2021/09/07 06:35:49;;;;;;;24.20;19.50;;;16.30;99.90;;;;;;5061708;28;20483;-87
2021/09/07 06:38:16;;;;;;;24.93;20.70;;;16.30;99.90;;;;;;5069255;28;20492;-86
2021/09/07 06:40:43;;;;;;;21.07;19.00;;;16.40;99.90;;;;;;5055739;28;20448;-87
2021/09/07 06:43:09;;;;;;;20.23;16.03;;;16.50;99.90;;;;;;5055691;28;20840;-87
2021/09/07 06:45:36;;;;;;;20.13;18.13;;;16.50;99.90;;;;;;5057441;28;20488;-87
2021/09/07 06:48:04;;;;;;;22.30;19.90;;;16.50;99.90;;;;;;5059508;28;20452;-88
2021/09/07 06:50:32;;;;;;;22.90;19.63;;;16.50;99.90;;;;;;5062015;28;20453;-89
2021/09/07 06:52:59;;;;;;;24.73;19.20;;;16.50;99.90;;;;;;5079119;28;20438;-89
2021/09/07 06:55:26;;;;;;;22.90;18.20;;;16.60;99.90;;;;;;5062288;28;20983;-88
2021/09/07 06:57:53;;;;;;;25.23;18.80;;;16.70;99.90;;;;;;5061113;28;20480;-89
2021/09/07 07:00:21;;;;;;;21.80;17.93;;;16.70;99.90;;;;;;5055606;28;20444;-89
2021/09/07 07:02:47;;;;;;;19.87;17.87;;;16.80;99.90;;;;;;5056173;28;20445;-89
2021/09/07 07:05:14;;;;;;;23.80;17.33;;;16.90;99.90;;;;;;5057648;28;20476;-89
2021/09/07 07:07:42;;;;;;;19.40;17.57;;;16.90;99.90;;;;;;5057874;28;20467;-89
2021/09/07 07:10:12;;;;;;;20.50;18.30;;;17.10;99.90;;;;;;5059938;28;20468;-88
2021/09/07 07:12:39;;;;;;;23.73;17.63;;;17.30;99.90;;;;;;5061071;28;20480;-89
2021/09/07 07:15:08;;;;;;;18.57;16.77;;;17.60;99.90;;;;;;5073740;28;20503;-89
2021/09/07 07:17:35;;;;;;;23.20;16.80;;;17.90;99.90;;;;;;5069826;28;20460;-89
2021/09/07 07:20:02;;;;;;;22.87;20.50;;;18.30;99.90;;;;;;5076130;28;20433;-89
2021/09/07 07:22:30;;;;;;;21.77;17.60;;;18.60;99.90;;;;;;5063742;28;20870;-89
2021/09/07 07:24:58;;;;;;;19.20;17.17;;;19.10;99.90;;;;;;5060567;28;20844;-89
2021/09/07 07:27:24;;;;;;;17.00;15.30;;;19.40;99.90;;;;;;5057955;28;20453;-89
2021/09/07 07:29:52;;;;;;;33.60;31.00;;;19.40;99.90;;;;;;5059055;28;20553;-89
2021/09/07 07:35:05;;;;;;;19.47;17.67;;;19.70;99.90;;;;;;5056709;28;20463;-88
2021/09/07 07:37:32;;;;;;;17.37;15.60;;;19.70;99.90;;;;;;5062295;28;20483;-88
2021/09/07 07:40:00;;;;;;;17.57;16.00;;;19.60;99.90;;;;;;5058396;28;20447;-88
2021/09/07 07:42:27;;;;;;;16.50;14.97;;;19.50;99.90;;;;;;5066429;28;20449;-88
2021/09/07 07:44:54;;;;;;;19.33;17.27;;;19.50;99.90;;;;;;5077332;28;20539;-89
2021/09/07 07:47:20;;;;;;;17.90;16.13;;;19.60;99.90;;;;;;5078400;28;20443;-90
2021/09/07 07:49:47;;;;;;;18.57;16.70;;;19.60;99.90;;;;;;5077988;28;20439;-88
2021/09/07 07:52:15;;;;;;;18.80;15.93;;;19.90;99.90;;;;;;5078194;28;20430;-88
2021/09/07 07:54:44;;;;;;;18.43;16.63;;;20.10;99.80;;;;;;5077048;28;20478;-88
2021/09/07 07:57:12;;;;;;;16.47;14.77;;;20.20;99.60;;;;;;5073525;28;20467;-88
2021/09/07 07:59:39;;;;;;;18.10;16.30;;;20.30;99.60;;;;;;5064200;28;20493;-88
2021/09/07 08:02:06;;;;;;;18.10;16.43;;;20.30;99.30;;;;;;5075376;28;20440;-88
2021/09/07 08:04:32;;;;;;;18.60;16.70;;;20.30;99.20;;;;;;5075664;28;20531;-88
2021/09/07 08:06:59;;;;;;;20.47;16.83;;;20.40;98.90;;;;;;5074275;28;20486;-88
2021/09/07 08:09:26;;;;;;;19.60;17.60;;;20.30;99.00;;;;;;5069210;28;20435;-88
2021/09/07 08:11:53;;;;;;;18.37;16.67;;;20.20;99.30;;;;;;5072977;28;20450;-91
2021/09/07 08:14:21;;;;;;;18.60;16.20;;;20.40;98.90;;;;;;5070530;28;20454;-87
2021/09/07 08:16:48;;;;;;;16.50;14.80;;;20.70;98.90;;;;;;5063731;28;20455;-87
2021/09/07 08:19:15;;;;;;;17.83;15.93;;;20.90;98.20;;;;;;5063456;28;20511;-88
2021/09/07 08:21:41;;;;;;;17.83;16.03;;;20.90;97.90;;;;;;5062505;28;20451;-88
2021/09/07 08:24:08;;;;;;;18.33;16.43;;;20.90;98.30;;;;;;5055083;28;20437;-89
2021/09/07 08:26:35;;;;;;;17.70;15.90;;;20.90;98.10;;;;;;5056195;28;20472;-89
2021/09/07 08:29:01;;;;;;;15.90;14.40;;;20.90;97.90;;;;;;5056223;28;20948;-89
2021/09/07 08:31:30;;;;;;;17.10;13.17;;;21.40;97.90;;;;;;5071521;28;20440;-90
2021/09/07 08:33:56;;;;;;;19.13;14.40;;;22.30;96.30;;;;;;5063277;28;20452;-88
2021/09/07 08:36:23;;;;;;;15.80;14.20;;;22.70;94.60;;;;;;5056014;28;20481;-88
2021/09/07 08:38:51;;;;;;;14.63;12.87;;;22.90;93.80;;;;;;5053869;28;20479;-88
2021/09/07 08:41:19;;;;;;;15.17;13.77;;;23.70;93.00;;;;;;5053557;28;20865;-88
2021/09/07 08:43:50;;;;;;;15.53;14.03;;;24.90;91.20;;;;;;5053731;28;20519;-89
2021/09/07 08:46:18;;;;;;;13.87;12.47;;;25.90;86.90;;;;;;5053402;28;20467;-89
2021/09/07 08:48:46;;;;;;;21.83;12.97;;;26.80;82.60;;;;;;5053638;28;20448;-89
2021/09/07 08:51:16;;;;;;;14.70;13.30;;;28.10;77.30;;;;;;5053478;28;20448;-89
2021/09/07 08:53:43;;;;;;;14.37;12.97;;;28.60;70.90;;;;;;5053871;28;20447;-89
2021/09/07 08:56:11;;;;;;;17.10;13.03;;;28.20;69.30;;;;;;5053075;28;20470;-89
2021/09/07 08:58:38;;;;;;;14.63;13.27;;;28.90;68.50;;;;;;5054955;28;20495;-89
2021/09/07 09:01:16;;;;;;;13.83;12.43;;;29.90;65.30;;;;;;5075124;28;20421;-89
2021/09/07 09:03:43;;;;;;;13.93;12.53;;;31.20;59.80;;;;;;5068308;28;20432;-89
2021/09/07 09:06:11;;;;;;;14.40;13.17;;;31.20;57.30;;;;;;5064902;28;20477;-89
2021/09/07 09:08:42;;;;;;;13.97;12.60;;;31.80;55.80;;;;;;5053616;28;20814;-89
2021/09/07 09:11:10;;;;;;;13.37;12.07;;;32.50;54.00;;;;;;5053908;28;20444;-90
2021/09/07 09:13:45;;;;;;;13.40;12.03;;;32.10;54.60;;;;;;5053354;28;20437;-89
2021/09/07 09:16:12;;;;;;;17.07;14.07;;;31.80;54.00;;;;;;5053345;28;20555;-89
2021/09/07 09:18:42;;;;;;;13.23;11.90;;;32.50;53.30;;;;;;5054431;28;20974;-89
2021/09/07 09:21:24;;;;;;;13.30;12.20;;;33.30;51.90;;;;;;5057383;28;20440;-89
2021/09/07 09:24:13;;;;;;;14.47;13.17;;;33.50;50.10;;;;;;5057553;28;20459;-87
2021/09/07 09:26:58;;;;;;;13.83;12.37;;;33.30;49.70;;;;;;5057618;28;20460;-90
2021/09/07 09:29:28;;;;;;;12.67;11.30;;;33.40;49.70;;;;;;5057930;28;20447;-89
2021/09/07 09:31:58;;;;;;;13.50;12.33;;;33.60;49.70;;;;;;5063862;28;20503;-91
2021/09/07 09:37:08;;;;;;;13.00;11.70;;;33.40;49.10;;;;;;4310795;23;20492;-92
2021/09/07 09:39:49;;;;;;;13.27;11.97;;;33.80;48.40;;;;;;5037682;28;20519;-90
2021/09/07 09:42:18;;;;;;;12.00;10.90;;;34.30;47.00;;;;;;5037997;28;20440;-90
2021/09/07 09:44:48;;;;;;;12.57;11.33;;;34.70;46.10;;;;;;5038641;28;20982;-90
2021/09/07 09:48:01;;;;;;;12.03;10.87;;;35.60;44.70;;;;;;5040687;28;20472;-89
2021/09/07 09:50:49;;;;;;;11.43;10.40;;;35.70;42.90;;;;;;5040153;28;20429;-90
2021/09/07 09:53:36;;;;;;;11.27;10.27;;;36.50;40.70;;;;;;5039665;28;20448;-89
2021/09/07 09:56:03;;;;;;;10.90;10.00;;;34.80;42.10;;;;;;5040201;28;21631;-88
2021/09/07 09:58:32;;;;;;;11.17;10.07;;;33.80;43.70;;;;;;5039149;28;20969;-90
2021/09/07 10:01:00;;;;;;;11.83;10.73;;;35.30;43.00;;;;;;5037730;28;20472;-90
2021/09/07 10:03:31;;;;;;;11.00;10.20;;;36.50;40.60;;;;;;5054935;28;20459;-93
2021/09/07 10:05:59;;;;;;;12.20;11.17;;;37.80;40.00;;;;;;5052596;28;20468;-93
2021/09/07 10:08:26;;;;;;;11.30;10.30;;;38.10;38.50;;;;;;5058944;28;20565;-90
2021/09/07 10:10:58;;;;;;;10.90;9.97;;;38.40;36.90;;;;;;5041634;28;20520;-91
2021/09/07 10:13:28;;;;;;;10.53;9.70;;;35.90;40.30;;;;;;5041071;28;20817;-92
2021/09/07 10:15:58;;;;;;;11.10;10.17;;;35.70;41.60;;;;;;5039776;28;20503;-91
2021/09/07 10:18:44;;;;;;;11.80;10.70;;;36.40;39.80;;;;;;5037732;28;20477;-92
2021/09/07 10:21:19;;;;;;;11.20;10.30;;;36.70;39.90;;;;;;5038539;28;20457;-91
2021/09/07 10:23:55;;;;;;;10.67;9.70;;;36.10;40.90;;;;;;5043202;28;20420;-92
2021/09/07 10:26:52;;;;;;;9.13;8.43;;;36.60;41.20;;;;;;5059650;28;20469;-93
2021/09/07 10:29:22;;;;;;;9.67;8.90;;;38.40;37.30;;;;;;5038842;28;20858;-91
2021/09/07 10:31:50;;;;;;;11.17;10.07;;;38.40;37.40;;;;;;5037281;28;20449;-91
2021/09/07 10:34:18;;;;;;;40.17;13.70;;;38.50;36.60;;;;;;5037808;28;20441;-91
2021/09/07 10:36:58;;;;;;;51.57;13.07;;;38.20;37.20;;;;;;5051972;28;20537;-91
2021/09/07 10:39:32;;;;;;;11.27;10.27;;;38.90;37.00;;;;;;5058250;28;20432;-92
2021/09/07 10:42:02;;;;;;;11.20;10.10;;;39.10;37.10;;;;;;5057258;28;20523;-93
2021/09/07 10:44:32;;;;;;;12.10;10.43;;;40.10;36.20;;;;;;5056334;28;20474;-92
2021/09/07 10:47:03;;;;;;;9.53;8.73;;;40.10;35.50;;;;;;5058559;28;20452;-92
2021/09/07 10:49:44;;;;;;;9.93;9.13;;;40.30;35.10;;;;;;5061545;28;20476;-94
2021/09/07 10:52:19;;;;;;;12.33;11.13;;;40.00;34.80;;;;;;5077159;28;20440;-92
2021/09/07 10:54:48;;;;;;;10.40;9.60;;;40.20;35.00;;;;;;5073964;28;20467;-92
2021/09/07 10:57:56;;;;;;;10.33;9.37;;;40.20;34.60;;;;;;5073531;28;20464;-92
2021/09/07 11:00:44;;;;;;;12.13;11.10;;;40.30;34.10;;;;;;5058808;28;20444;-92
2021/09/07 11:03:12;;;;;;;10.83;10.03;;;38.90;35.70;;;;;;5053228;28;20479;-93
2021/09/07 11:05:47;;;;;;;11.50;10.50;;;38.90;37.20;;;;;;5056517;28;20498;-92
2021/09/07 11:08:16;;;;;;;11.53;10.60;;;38.30;36.80;;;;;;5055823;28;20469;-92
2021/09/07 11:10:46;;;;;;;10.47;9.70;;;36.70;39.00;;;;;;5056142;28;20470;-92
2021/09/07 11:13:21;;;;;;;11.13;10.10;;;36.80;38.50;;;;;;5055034;28;20444;-91
2021/09/07 11:15:49;;;;;;;11.20;10.20;;;36.60;39.10;;;;;;5055326;28;20835;-90
2021/09/07 11:18:21;;;;;;;10.40;9.53;;;37.80;38.50;;;;;;5054749;28;20962;-91
2021/09/07 11:20:50;;;;;;;10.43;9.63;;;38.60;35.90;;;;;;5055781;28;20456;-91
2021/09/07 11:23:19;;;;;;;10.30;9.50;;;38.70;36.50;;;;;;5056373;28;20513;-90
2021/09/07 11:25:47;;;;;;;10.10;9.40;;;39.00;36.10;;;;;;5063685;28;20476;-90
2021/09/07 11:28:17;;;;;;;10.37;9.67;;;39.50;35.70;;;;;;5075977;28;20452;-90
2021/09/07 11:30:47;;;;;;;10.23;9.43;;;40.10;34.40;;;;;;5068080;28;20893;-91
2021/09/07 11:33:15;;;;;;;10.00;9.10;;;40.90;34.10;;;;;;5055918;28;20463;-91
2021/09/07 11:35:44;;;;;;;10.43;9.53;;;40.80;34.10;;;;;;5064697;23;20568;-84
2021/09/07 11:38:14;;;;;;;11.30;10.33;;;40.30;33.60;;;;;;5045667;28;20503;-83
2021/09/07 11:40:46;;;;;;;10.07;9.37;;;40.70;33.60;;;;;;5042343;28;20501;-84
2021/09/07 11:43:14;;;;;;;9.90;9.20;;;40.80;32.80;;;;;;5042353;28;20444;-85
2021/09/07 11:45:42;;;;;;;9.67;8.97;;;40.50;32.90;;;;;;5044898;28;20984;-85
2021/09/07 11:48:10;;;;;;;9.70;8.83;;;40.90;32.80;;;;;;5042560;28;20434;-84
2021/09/07 11:50:39;;;;;;;11.77;10.87;;;40.30;33.00;;;;;;5040470;28;20509;-83
2021/09/07 11:53:09;;;;;;;10.63;9.83;;;40.20;33.40;;;;;;5041014;28;20476;-84
2021/09/07 11:55:44;;;;;;;9.80;9.10;;;39.40;33.60;;;;;;5039645;28;20469;-83
2021/09/07 11:58:28;;;;;;;9.03;8.30;;;39.70;34.20;;;;;;5045131;28;20460;-84
2021/09/07 12:01:15;;;;;;;8.10;7.50;;;39.00;31.40;;;;;;5042821;28;20644;-84
2021/09/07 12:03:53;;;;;;;9.03;8.33;;;38.00;31.60;;;;;;5042132;28;20453;-84
2021/09/07 12:06:30;;;;;;;8.20;7.60;;;36.90;32.40;;;;;;5035995;28;20465;-84
2021/09/07 12:08:57;;;;;;;9.10;8.47;;;37.00;32.40;;;;;;5033797;28;20480;-84
2021/09/07 12:11:30;;;;;;;8.83;8.13;;;38.00;31.00;;;;;;5041428;28;20441;-84
2021/09/07 12:14:05;;;;;;;7.93;7.33;;;37.90;32.30;;;;;;5041655;28;20449;-82
2021/09/07 12:16:34;;;;;;;8.73;8.00;;;38.60;31.20;;;;;;5037627;28;20552;-84
2021/09/07 12:19:20;;;;;;;9.10;8.40;;;38.50;31.30;;;;;;5035870;28;20446;-84
2021/09/07 12:21:47;;;;;;;9.33;8.53;;;37.50;31.80;;;;;;5035341;28;20859;-83
2021/09/07 12:24:15;;;;;;;8.43;7.83;;;37.00;32.90;;;;;;5036084;28;20445;-82
2021/09/07 12:26:43;;;;;;;9.07;8.37;;;37.40;33.60;;;;;;5034970;28;20509;-83
2021/09/07 12:29:18;;;;;;;9.93;9.20;;;36.70;33.20;;;;;;5042257;28;20481;-83
2021/09/07 12:31:46;;;;;;;8.90;8.13;;;35.50;35.20;;;;;;5052781;28;20448;-83
2021/09/07 12:34:20;;;;;;;8.50;7.90;;;36.30;34.40;;;;;;5053203;28;20445;-83
2021/09/07 12:36:49;;;;;;;8.87;8.17;;;36.80;34.30;;;;;;5045465;28;20786;-84
2021/09/07 12:39:17;;;;;;;8.63;8.00;;;37.10;33.60;;;;;;5040442;28;20468;-84
2021/09/07 12:41:44;;;;;;;9.47;8.67;;;37.50;33.80;;;;;;5044554;28;20516;-83
2021/09/07 12:44:16;;;;;;;7.83;7.23;;;37.50;33.30;;;;;;5041759;28;20445;-84